Time;durP1;ratioP1;P1;durP2;ratioP2;P2;SDS_P1;SDS_P2;PMS_P1;PMS_P2;Temp;Humidity;BMP_temperature;BMP_pressure;BME280_temperature;BME280_humidity;BME280_pressure;Samples;Min_cycle;Max_cycle;Signal;HPM_P1;HPM_P2
2021/06/14 05:09:59;;;;;;;8.23;4.73;;;;;;;14.84;75.67;100038.33;125297;1102;104265;-77
2021/06/14 05:12:31;;;;;;;7.63;4.40;;;;;;;14.81;75.25;100046.21;125202;1102;104249;-76
2021/06/14 05:15:03;;;;;;;8.03;4.33;;;;;;;14.81;75.88;100040.93;125203;1102;104249;-78
2021/06/14 05:17:33;;;;;;;6.67;4.60;;;;;;;14.84;75.38;100048.89;125007;1105;104199;-77
2021/06/14 05:20:06;;;;;;;8.77;4.70;;;;;;;14.87;76.03;100048.92;125121;1102;104184;-78
2021/06/14 05:22:37;;;;;;;9.87;4.60;;;;;;;14.86;75.27;100045.38;125171;1102;104149;-78
2021/06/14 05:25:10;;;;;;;8.73;4.83;;;;;;;14.88;75.08;100048.94;124998;1105;104224;-78
2021/06/14 05:27:41;;;;;;;8.90;4.80;;;;;;;14.91;75.34;100046.33;125000;1102;104175;-78
2021/06/14 05:30:13;;;;;;;11.40;4.53;;;;;;;15.00;75.74;100057.86;124960;1101;104240;-78
2021/06/14 05:32:45;;;;;;;9.67;4.53;;;;;;;15.02;75.84;100056.11;125158;1102;104341;-79
2021/06/14 05:35:16;;;;;;;11.20;4.77;;;;;;;15.02;75.47;100050.82;125011;1102;104185;-78
2021/06/14 05:37:49;;;;;;;10.43;4.90;;;;;;;15.05;75.74;100061.42;125178;1102;104217;-77
2021/06/14 05:40:22;;;;;;;12.85;4.60;;;;;;;15.12;75.77;100049.19;124976;1105;104155;-76
2021/06/14 05:42:53;;;;;;;8.60;4.30;;;;;;;15.16;75.72;100049.23;124991;1102;104142;-76
2021/06/14 05:45:24;;;;;;;8.30;4.67;;;;;;;15.21;74.86;100050.16;125098;1102;104229;-78
2021/06/14 05:47:55;;;;;;;10.47;4.70;;;;;;;15.24;75.70;100049.30;125229;1102;104175;-79
2021/06/14 05:50:26;;;;;;;14.80;4.90;;;;;;;15.26;75.52;100047.55;125076;1102;104242;-76
2021/06/14 05:52:56;;;;;;;12.93;5.00;;;;;;;15.27;74.93;100060.78;125009;1105;104213;-78
2021/06/14 05:55:29;;;;;;;12.37;5.47;;;;;;;15.25;75.29;100054.61;125039;1103;104152;-78
2021/06/14 05:58:00;;;;;;;11.53;5.40;;;;;;;15.25;75.05;100061.63;125007;1105;104143;-78
2021/06/14 06:00:31;;;;;;;8.70;4.50;;;;;;;15.22;75.47;100058.95;124984;1103;104163;-80
2021/06/14 06:03:06;;;;;;;9.90;4.50;;;;;;;15.20;75.37;100058.06;125195;1102;104146;-80
2021/06/14 06:05:41;;;;;;;11.60;4.57;;;;;;;15.30;75.56;100072.25;125036;1105;104309;-81
2021/06/14 06:08:14;;;;;;;9.03;4.53;;;;;;;15.44;75.40;100078.54;124983;1105;104367;-82
2021/06/14 06:10:45;;;;;;;12.43;4.87;;;;;;;15.50;75.03;100080.36;124917;1105;104158;-81
2021/06/14 06:13:16;;;;;;;6.93;4.30;;;;;;;15.49;75.09;100079.48;124724;1106;104150;-80
2021/06/14 06:15:47;;;;;;;9.10;4.37;;;;;;;15.53;74.45;100075.98;124849;1106;104326;-82
2021/06/14 06:18:18;;;;;;;13.73;4.20;;;;;;;15.60;75.33;100076.94;125005;1105;104725;-82
2021/06/14 06:20:48;;;;;;;11.50;4.63;;;;;;;15.71;74.54;100079.67;124744;1105;104185;-80
2021/06/14 06:23:19;;;;;;;11.37;5.23;;;;;;;15.80;74.15;100079.78;124720;1105;104312;-79
2021/06/14 06:25:50;;;;;;;11.33;4.87;;;;;;;15.93;75.02;100075.45;124670;1105;104207;-81
2021/06/14 06:28:21;;;;;;;8.27;4.00;;;;;;;16.05;74.29;100069.34;124712;1106;104159;-80
2021/06/14 06:30:52;;;;;;;9.23;4.00;;;;;;;16.15;74.52;100065.89;124734;1109;104153;-81
2021/06/14 06:33:23;;;;;;;7.20;3.73;;;;;;;16.17;74.73;100062.39;124736;1105;104297;-81
2021/06/14 06:35:54;;;;;;;8.53;3.60;;;;;;;16.24;74.17;100054.48;124697;1105;104574;-80
2021/06/14 06:38:29;;;;;;;8.50;4.00;;;;;;;16.31;74.26;100058.91;124714;1106;104159;-80
2021/06/14 06:40:58;;;;;;;;;;;;;;;16.38;74.11;100060.73;124933;1105;104313;-82
2021/06/14 06:43:29;;;;;;;9.03;3.67;;;;;;;16.52;73.61;100060.80;125042;1105;104178;-80
2021/06/14 06:46:01;;;;;;;9.67;3.70;;;;;;;16.65;73.82;100064.37;125065;1105;104246;-79
2021/06/14 06:48:33;;;;;;;10.07;3.87;;;;;;;16.66;73.95;100060.86;124997;1106;104326;-80
2021/06/14 06:51:06;;;;;;;7.37;3.40;;;;;;;16.65;73.34;100056.42;125015;1105;105630;-80
2021/06/14 06:53:38;;;;;;;8.37;3.50;;;;;;;16.80;72.87;100059.12;124993;1105;104174;-79
2021/06/14 06:56:09;;;;;;;6.23;3.10;;;;;;;16.88;73.13;100052.11;125055;1102;104211;-81
2021/06/14 06:58:43;;;;;;;7.57;3.80;;;;;;;16.93;72.61;100052.12;125174;1102;104139;-80
2021/06/14 07:01:18;;;;;;;6.70;3.30;;;;;;;17.01;72.43;100054.80;125168;1102;104318;-78
2021/06/14 07:03:51;;;;;;;8.80;3.93;;;;;;;17.09;72.30;100050.39;125159;1102;104143;-79
2021/06/14 07:06:22;;;;;;;5.00;3.35;;;;;;;17.11;72.09;100056.59;125236;1102;104290;-79
2021/06/14 07:08:57;;;;;;;7.30;3.30;;;;;;;17.24;72.28;100055.72;125037;1102;104297;-79
2021/06/14 07:11:31;;;;;;;5.33;3.13;;;;;;;17.35;71.89;100055.73;125149;1102;104220;-80
2021/06/14 07:14:03;;;;;;;7.23;3.40;;;;;;;17.47;71.88;100057.52;125151;1102;104153;-80
2021/06/14 07:16:35;;;;;;;5.70;3.33;;;;;;;17.65;71.95;100066.36;125203;1102;104222;-80
2021/06/14 07:19:13;;;;;;;6.87;3.20;;;;;;;17.82;71.78;100077.84;125213;1101;104188;-78
2021/06/14 07:21:44;;;;;;;6.10;3.20;;;;;;;18.06;70.68;100069.01;125084;1101;104195;-78
2021/06/14 07:24:15;;;;;;;5.80;3.40;;;;;;;18.21;70.85;100078.70;125115;1102;104245;-81
2021/06/14 07:26:48;;;;;;;7.57;3.23;;;;;;;18.29;70.41;100079.58;125096;1102;104155;-77
2021/06/14 07:29:25;;;;;;;5.93;2.77;;;;;;;18.32;70.24;100079.58;125093;1102;104149;-76
2021/06/14 07:32:16;;;;;;;;;;;;;;;18.39;69.48;100076.91;125131;1102;105287;-79
2021/06/14 07:34:47;;;;;;;9.20;3.57;;;;;;;18.47;69.53;100078.63;125226;1102;104229;-78
2021/06/14 07:37:19;;;;;;;5.73;3.20;;;;;;;18.63;69.18;100084.76;125231;1102;104232;-78
2021/06/14 07:39:49;;;;;;;5.90;2.80;;;;;;;18.73;69.74;100090.94;125151;1102;104345;-78
2021/06/14 07:42:20;;;;;;;8.77;3.10;;;;;;;18.82;69.22;100085.59;124989;1103;104210;-80
2021/06/14 07:44:53;;;;;;;5.27;3.00;;;;;;;19.05;68.89;100087.27;125213;1102;104149;-78
2021/06/14 07:47:23;;;;;;;8.07;3.20;;;;;;;19.31;68.80;100087.11;125176;1102;104206;-78
2021/06/14 07:49:54;;;;;;;5.57;2.80;;;;;;;19.35;68.77;100093.28;125159;1102;104162;-80
2021/06/14 07:52:25;;;;;;;8.53;2.93;;;;;;;19.28;68.29;100095.10;125036;1102;104338;-78
2021/06/14 07:54:57;;;;;;;7.87;2.87;;;;;;;19.42;68.47;100091.48;125169;1102;104252;-78
2021/06/14 07:57:27;;;;;;;7.30;3.20;;;;;;;19.47;68.02;100082.55;125197;1102;104211;-77
2021/06/14 07:59:58;;;;;;;6.60;2.77;;;;;;;19.53;67.80;100081.63;125224;1102;104589;-77
2021/06/14 08:02:29;;;;;;;6.03;2.77;;;;;;;19.54;67.41;100075.39;124986;1102;105356;-77
2021/06/14 08:05:02;;;;;;;6.47;2.80;;;;;;;19.56;67.10;100093.12;125093;1102;104149;-79
2021/06/14 08:07:34;;;;;;;5.80;2.70;;;;;;;19.58;67.17;100083.34;125022;1105;104200;-79
2021/06/14 08:10:08;;;;;;;7.27;3.20;;;;;;;19.46;66.68;100078.15;125141;1102;104137;-79
2021/06/14 08:12:43;;;;;;;5.12;2.67;;;;;;;19.42;66.14;100084.37;125116;1102;104149;-79
2021/06/14 08:15:17;;;;;;;4.87;2.70;;;;;;;19.62;66.62;100094.87;125098;1102;104162;-77
2021/06/14 08:17:55;;;;;;;4.37;2.30;;;;;;;19.95;64.83;100095.51;125173;1102;104322;-77
2021/06/14 08:20:32;;;;;;;5.30;2.30;;;;;;;20.28;66.12;100085.41;125105;1102;104197;-76
2021/06/14 08:25:48;;;;;;;4.93;2.10;;;;;;;20.39;65.28;100096.82;125007;1102;104174;-78
2021/06/14 08:28:18;;;;;;;4.03;2.47;;;;;;;20.19;65.17;100085.50;125168;1102;104169;-77
2021/06/14 08:30:49;;;;;;;6.20;3.00;;;;;;;19.99;64.12;100099.02;125147;1102;104360;-78
2021/06/14 08:33:20;;;;;;;3.67;2.23;;;;;;;19.88;63.64;100099.11;125142;1102;104165;-78
2021/06/14 08:35:51;;;;;;;2.83;1.93;;;;;;;19.84;63.44;100095.59;124973;1102;104242;-77
2021/06/14 08:38:22;;;;;;;5.37;2.43;;;;;;;20.04;63.92;100087.43;125120;1102;104198;-81
2021/06/14 08:40:55;;;;;;;6.03;2.40;;;;;;;20.09;63.52;100106.03;125154;1102;104206;-77
2021/06/14 08:43:29;;;;;;;3.40;2.17;;;;;;;20.21;63.25;100100.58;125129;1102;104149;-78
2021/06/14 08:46:00;;;;;;;5.57;2.33;;;;;;;20.47;63.92;100086.98;125222;1102;104293;-77
2021/06/14 08:48:33;;;;;;;5.17;2.50;;;;;;;20.55;61.72;100099.31;125194;1102;104174;-79
2021/06/14 08:51:04;;;;;;;3.43;2.60;;;;;;;20.58;61.97;100105.48;125135;1102;104201;-78
2021/06/14 08:53:35;;;;;;;4.93;2.50;;;;;;;20.43;62.99;100111.02;125074;1102;104392;-79
2021/06/14 08:56:08;;;;;;;12.40;2.67;;;;;;;20.38;63.06;100108.41;125122;1102;104201;-78
2021/06/14 08:58:42;;;;;;;4.92;2.08;;;;;;;20.42;62.63;100119.90;125034;1102;104133;-79
2021/06/14 09:01:11;;;;;;;;;;;;;;;20.61;61.71;100113.44;125202;1101;104175;-79
2021/06/14 09:03:42;;;;;;;3.10;2.27;;;;;;;20.64;62.25;100109.88;125016;1102;104152;-78
2021/06/14 09:06:13;;;;;;;2.63;2.10;;;;;;;20.64;61.93;100117.87;125083;1102;104182;-79
2021/06/14 09:09:01;;;;;;;3.50;2.00;;;;;;;20.61;60.05;100120.56;125139;1102;104540;-78
2021/06/14 09:11:36;;;;;;;5.60;2.33;;;;;;;20.67;60.26;100119.66;125075;1102;104676;-77
2021/06/14 09:14:19;;;;;;;3.60;2.47;;;;;;;20.65;61.29;100112.55;125014;1102;104249;-79
2021/06/14 09:16:51;;;;;;;2.83;1.57;;;;;;;20.67;59.73;100120.53;125130;1102;104168;-78
2021/06/14 09:19:29;;;;;;;2.80;1.90;;;;;;;20.67;59.51;100131.20;125084;1102;104150;-79
2021/06/14 09:22:14;;;;;;;5.53;2.43;;;;;;;20.69;59.79;100117.84;125075;1102;104156;-78
2021/06/14 09:24:58;;;;;;;3.70;2.00;;;;;;;20.76;60.28;100125.75;125116;1102;104143;-81
2021/06/14 09:27:34;;;;;;;5.30;2.40;;;;;;;20.99;60.71;100121.93;125062;1101;104229;-78
2021/06/14 09:30:21;;;;;;;3.90;1.77;;;;;;;21.10;60.01;100114.66;125157;1102;104363;-77
2021/06/14 09:32:57;;;;;;;3.70;1.93;;;;;;;21.12;59.41;100123.51;125036;1102;104318;-77
2021/06/14 09:35:32;;;;;;;5.97;2.10;;;;;;;21.17;59.45;100126.98;125129;1102;107721;-80
2021/06/14 09:38:14;;;;;;;4.60;2.27;;;;;;;21.25;59.19;100126.01;125192;1102;104206;-79
2021/06/14 09:40:49;;;;;;;4.97;1.80;;;;;;;21.29;59.13;100125.08;124920;1102;104201;-78
2021/06/14 09:43:29;;;;;;;3.63;2.40;;;;;;;21.22;58.64;100134.05;124960;1102;104977;-79
2021/06/14 09:46:08;;;;;;;3.40;1.67;;;;;;;21.12;58.23;100139.52;124939;1102;104230;-77
2021/06/14 09:48:43;;;;;;;3.15;2.20;;;;;;;21.11;58.61;100135.07;125082;1103;104699;-78
2021/06/14 09:51:22;;;;;;;3.80;2.27;;;;;;;21.09;57.66;100144.89;125126;1102;104175;-80
2021/06/14 09:53:57;;;;;;;;;;;;;;;20.92;57.78;100129.11;125118;1101;104277;-79
2021/06/14 09:56:32;;;;;;;2.87;1.85;;;;;;;20.84;58.16;100139.00;124996;1102;104175;-77
2021/06/14 09:59:04;;;;;;;4.67;2.10;;;;;;;20.69;57.20;100147.17;125169;1102;104301;-76
2021/06/14 10:01:39;;;;;;;4.83;2.30;;;;;;;20.55;57.58;100141.95;124916;1102;104149;-78
2021/06/14 10:04:17;;;;;;;2.15;1.62;;;;;;;20.54;57.47;100145.55;125094;1102;104655;-78
2021/06/14 10:06:50;;;;;;;3.77;2.00;;;;;;;20.49;57.07;100148.26;124941;1102;104303;-77
2021/06/14 10:09:21;;;;;;;3.70;1.90;;;;;;;20.44;57.22;100153.64;125047;1102;102429;-78
2021/06/14 10:11:52;;;;;;;4.20;2.40;;;;;;;20.41;58.13;100151.00;125008;1102;104203;-78
2021/06/14 10:14:24;;;;;;;9.30;2.50;;;;;;;20.46;57.53;100153.63;124903;1102;104300;-77
2021/06/14 10:17:06;;;;;;;4.57;2.33;;;;;;;20.52;57.31;100163.31;125003;1102;104163;-77
2021/06/14 10:19:39;;;;;;;5.43;2.47;;;;;;;20.58;57.65;100160.58;125067;1102;104140;-78
2021/06/14 10:22:14;;;;;;;5.15;2.50;;;;;;;20.57;57.77;100167.70;125062;1102;104139;-77
2021/06/14 10:24:44;;;;;;;3.60;2.23;;;;;;;20.51;57.56;100167.77;125019;1102;104364;-78
2021/06/14 10:27:17;;;;;;;7.53;2.20;;;;;;;20.46;58.03;100170.48;125054;1102;104203;-77
2021/06/14 10:29:48;;;;;;;4.37;2.03;;;;;;;20.52;57.89;100155.32;125094;1102;104243;-75
2021/06/14 10:32:19;;;;;;;4.13;2.50;;;;;;;20.65;57.86;100165.00;125039;1102;104216;-76
2021/06/14 10:34:50;;;;;;;6.03;2.40;;;;;;;20.73;57.54;100164.91;125080;1102;104207;-76
2021/06/14 10:37:23;;;;;;;3.27;2.20;;;;;;;20.77;56.72;100159.53;125022;1102;104222;-75
2021/06/14 10:39:56;;;;;;;5.87;2.50;;;;;;;20.83;56.72;100159.45;124996;1102;104144;-76
2021/06/14 10:42:27;;;;;;;2.73;2.33;;;;;;;20.96;57.17;100154.84;125096;1102;104226;-77
2021/06/14 10:44:58;;;;;;;3.40;1.63;;;;;;;21.04;57.23;100157.42;125095;1102;104150;-76
2021/06/14 10:47:29;;;;;;;3.83;1.93;;;;;;;21.09;56.36;100160.90;125103;1102;102903;-75
2021/06/14 10:50:01;;;;;;;2.37;1.90;;;;;;;21.15;56.90;100158.16;125092;1102;104146;-77
2021/06/14 10:52:46;;;;;;;4.47;1.70;;;;;;;21.10;55.98;100165.34;125052;1102;104144;-78
2021/06/14 10:55:20;;;;;;;3.10;1.90;;;;;;;21.24;56.26;100169.59;125042;1102;104204;-76
2021/06/14 10:57:52;;;;;;;4.17;2.20;;;;;;;21.27;56.29;100169.55;124981;1102;104188;-77
2021/06/14 11:00:30;;;;;;;3.30;2.15;;;;;;;21.14;56.27;100156.38;125132;1102;104178;-78
2021/06/14 11:03:04;;;;;;;5.67;2.40;;;;;;;21.05;56.54;100161.86;125186;1102;104214;-77
2021/06/14 11:05:42;;;;;;;2.47;2.00;;;;;;;21.08;56.67;100168.92;124955;1102;104200;-77
2021/06/14 11:08:18;;;;;;;5.10;2.60;;;;;;;21.10;56.74;100169.77;125032;1102;104165;-77
2021/06/14 11:11:06;;;;;;;5.03;2.00;;;;;;;21.14;55.48;100171.51;125028;1102;104188;-77
2021/06/14 11:13:51;;;;;;;2.85;2.20;;;;;;;21.27;56.37;100189.14;125139;1102;104162;-77
2021/06/14 11:16:35;;;;;;;4.30;2.40;;;;;;;21.41;55.73;100166.70;125148;1102;104146;-77
2021/06/14 11:19:08;;;;;;;4.90;2.30;;;;;;;21.39;55.36;100187.20;125135;1102;104137;-77
2021/06/14 11:21:40;;;;;;;;;;;;;;;21.36;55.65;100166.77;125238;1101;104179;-76
2021/06/14 11:24:13;;;;;;;;;;;;;;;21.33;55.12;100164.13;125230;1102;104139;-76
2021/06/14 11:26:44;;;;;;;3.50;2.30;;;;;;;21.35;55.68;100162.35;125232;1102;104721;-76
2021/06/14 11:29:20;;;;;;;3.90;2.00;;;;;;;21.54;55.45;100147.84;125169;1102;104239;-76
2021/06/14 11:32:03;;;;;;;4.73;2.43;;;;;;;21.74;55.76;100138.66;125185;1102;104332;-76
2021/06/14 11:34:42;;;;;;;3.43;2.27;;;;;;;21.82;55.82;100142.08;125112;1102;102545;-77
2021/06/14 11:37:15;;;;;;;3.90;2.00;;;;;;;21.88;55.34;100141.98;125113;1102;104206;-75
2021/06/14 11:40:05;;;;;;;4.87;2.17;;;;;;;22.19;55.35;100140.55;125156;1102;104179;-76
2021/06/14 11:42:47;;;;;;;2.40;1.90;;;;;;;22.32;54.08;100138.60;125057;1102;104140;-79
2021/06/14 11:45:37;;;;;;;2.37;1.53;;;;;;;22.38;54.19;100141.16;125072;1102;104174;-75
2021/06/14 11:48:23;;;;;;;3.17;1.83;;;;;;;22.57;54.28;100139.88;125168;1102;104146;-77
2021/06/14 11:51:05;;;;;;;3.57;2.10;;;;;;;22.69;54.28;100135.19;125240;1102;104175;-78
2021/06/14 11:53:53;;;;;;;3.10;1.80;;;;;;;22.67;53.55;100131.67;125256;1102;104169;-77
2021/06/14 11:56:25;;;;;;;4.00;1.80;;;;;;;22.65;53.85;100129.03;125130;1102;104152;-76
2021/06/14 11:58:58;;;;;;;3.10;2.05;;;;;;;22.75;54.14;100129.72;125171;1102;104195;-76
2021/06/14 12:01:32;;;;;;;6.87;2.37;;;;;;;22.83;53.59;100125.12;125138;1102;104143;-75
2021/06/14 12:04:05;;;;;;;2.60;2.03;;;;;;;22.80;53.62;100130.53;125159;1102;104146;-76
2021/06/14 12:06:46;;;;;;;4.92;2.50;;;;;;;22.64;53.25;100137.09;125055;1102;104204;-75
2021/06/14 12:09:21;;;;;;;2.27;2.07;;;;;;;22.60;53.02;100141.63;125143;1102;104149;-78
2021/06/14 12:12:02;;;;;;;4.77;2.20;;;;;;;22.71;53.16;100141.41;125167;1102;104172;-78
2021/06/14 12:14:34;;;;;;;3.93;2.50;;;;;;;22.78;53.02;100138.59;125220;1102;104254;-77
2021/06/14 12:17:08;;;;;;;4.12;2.05;;;;;;;22.79;53.23;100139.45;125148;1102;104140;-78
2021/06/14 12:19:42;;;;;;;1.93;1.70;;;;;;;22.71;52.96;100150.31;125154;1102;104178;-76
2021/06/14 12:22:13;;;;;;;3.70;2.17;;;;;;;22.55;53.00;100140.84;124996;1102;104220;-75
2021/06/14 12:24:48;;;;;;;5.67;1.93;;;;;;;22.33;52.63;100143.02;125154;1102;104175;-78
2021/06/14 12:27:21;;;;;;;4.33;1.73;;;;;;;22.29;53.43;100147.51;125083;1102;104219;-78
2021/06/14 12:30:05;;;;;;;2.13;1.37;;;;;;;22.20;52.34;100131.64;125201;1102;104206;-77
2021/06/14 12:32:39;;;;;;;3.43;1.53;;;;;;;22.05;52.61;100139.03;125206;1102;104245;-77
2021/06/14 12:35:12;;;;;;;3.43;1.60;;;;;;;22.07;52.82;100142.55;125228;1102;104229;-76
2021/06/14 12:37:43;;;;;;;2.35;1.40;;;;;;;22.05;53.13;100149.71;125220;1102;104252;-76
2021/06/14 12:40:18;;;;;;;2.75;1.40;;;;;;;22.06;52.92;100146.14;125197;1102;104220;-76
2021/06/14 12:42:59;;;;;;;2.30;1.60;;;;;;;21.99;52.31;100154.28;125101;1102;104150;-75
2021/06/14 12:45:31;;;;;;;3.53;1.87;;;;;;;21.99;53.06;100148.95;125190;1102;104198;-75
2021/06/14 12:48:06;;;;;;;2.95;1.50;;;;;;;21.94;52.62;100138.34;124982;1102;104166;-75
2021/06/14 12:50:41;;;;;;;2.40;1.60;;;;;;;21.78;52.55;100145.70;125100;1102;104312;-76
2021/06/14 12:53:16;;;;;;;2.63;1.70;;;;;;;21.71;52.52;100136.91;125182;1102;104149;-76
2021/06/14 12:55:51;;;;;;;1.27;1.10;;;;;;;21.85;53.31;100151.84;125225;1102;104175;-77
2021/06/14 12:58:24;;;;;;;1.03;0.97;;;;;;;22.01;52.60;100153.33;125098;1102;104204;-76
2021/06/14 13:01:01;;;;;;;1.70;1.20;;;;;;;22.08;52.83;100157.67;125275;1102;104153;-77
2021/06/14 13:03:34;;;;;;;1.67;1.27;;;;;;;22.08;51.90;100151.46;124997;1101;104386;-76
2021/06/14 13:06:07;;;;;;;5.65;1.17;;;;;;;22.15;52.86;100147.75;125144;1102;104204;-76
2021/06/14 13:08:41;;;;;;;3.40;1.37;;;;;;;22.31;53.20;100151.06;125082;1102;104177;-75
2021/06/14 13:11:14;;;;;;;2.40;1.70;;;;;;;22.26;52.70;100153.78;125035;1102;105206;-77
2021/06/14 13:13:48;;;;;;;3.20;1.40;;;;;;;22.05;52.61;100155.05;125160;1102;104248;-78
2021/06/14 13:16:19;;;;;;;;;;;;;;;21.93;52.84;100151.72;124967;1102;104348;-77
2021/06/14 13:18:59;;;;;;;2.50;1.70;;;;;;;21.84;53.36;100148.27;125147;1102;104172;-75
2021/06/14 13:21:34;;;;;;;2.03;1.30;;;;;;;21.85;52.50;100155.38;125181;1102;104191;-78
2021/06/14 13:24:11;;;;;;;6.03;1.50;;;;;;;21.83;53.06;100153.63;125226;1102;104137;-78
2021/06/14 13:26:44;;;;;;;1.37;1.23;;;;;;;21.86;53.20;100156.25;125122;1102;104168;-77
2021/06/14 13:29:18;;;;;;;3.00;1.60;;;;;;;21.99;52.97;100148.95;124980;1102;104223;-76
2021/06/14 13:31:51;;;;;;;3.47;1.33;;;;;;;22.09;53.16;100150.53;125211;1102;104277;-78
2021/06/14 13:34:27;;;;;;;1.40;1.30;;;;;;;22.00;52.80;100156.03;125142;1102;104226;-78
2021/06/14 13:36:59;;;;;;;1.77;1.47;;;;;;;21.81;53.36;100160.80;125033;1102;104133;-79
2021/06/14 13:39:37;;;;;;;3.80;1.53;;;;;;;21.70;53.41;100153.83;125179;1102;104146;-81
2021/06/14 13:42:14;;;;;;;2.93;1.50;;;;;;;21.70;53.42;100153.83;125133;1102;104175;-81
2021/06/14 13:44:55;;;;;;;2.73;1.23;;;;;;;21.64;53.05;100161.06;125156;1102;104203;-78
2021/06/14 13:47:27;;;;;;;3.60;1.30;;;;;;;21.52;53.24;100151.47;125215;1102;104137;-78
2021/06/14 13:50:08;;;;;;;3.23;1.40;;;;;;;21.46;53.60;100156.86;125126;1102;104163;-77
2021/06/14 13:52:42;;;;;;;2.77;1.80;;;;;;;21.36;53.40;100158.75;125171;1102;104137;-79
2021/06/14 13:55:15;;;;;;;2.27;1.30;;;;;;;21.25;52.85;100171.38;125203;1102;104428;-78
2021/06/14 13:57:55;;;;;;;4.37;1.50;;;;;;;21.11;52.88;100164.42;125185;1102;104245;-76
2021/06/14 14:00:29;;;;;;;4.40;1.70;;;;;;;20.99;53.82;100162.81;125175;1102;104239;-77
2021/06/14 14:03:02;;;;;;;2.55;1.72;;;;;;;20.92;53.32;100157.56;125208;1102;104240;-77
2021/06/14 14:05:38;;;;;;;3.20;1.30;;;;;;;20.86;54.13;100157.64;125135;1102;104182;-78
2021/06/14 14:08:16;;;;;;;1.03;1.03;;;;;;;20.81;54.00;100155.91;125142;1101;104245;-78
2021/06/14 14:10:49;;;;;;;3.13;1.30;;;;;;;20.74;53.92;100164.89;125127;1102;104155;-78
2021/06/14 14:13:26;;;;;;;2.00;1.60;;;;;;;20.63;54.34;100162.31;125221;1102;104223;-78
2021/06/14 14:16:00;;;;;;;5.00;1.57;;;;;;;20.64;54.38;100149.86;125164;1102;104162;-77
2021/06/14 14:18:42;;;;;;;1.40;1.30;;;;;;;20.64;54.41;100148.09;125141;1102;105185;-78
2021/06/14 14:21:16;;;;;;;2.37;1.30;;;;;;;20.71;54.73;100140.94;125156;1102;106875;-78
2021/06/14 14:23:51;;;;;;;3.23;1.47;;;;;;;20.78;53.80;100142.61;125097;1102;104182;-78
2021/06/14 14:26:22;;;;;;;1.30;1.20;;;;;;;20.82;54.42;100146.14;125145;1102;104207;-78
2021/06/14 14:28:54;;;;;;;3.13;1.00;;;;;;;20.78;54.63;100141.73;125142;1102;105471;-78
2021/06/14 14:31:26;;;;;;;2.00;1.33;;;;;;;20.80;54.30;100132.83;125071;1102;118957;-76
2021/06/14 14:33:59;;;;;;;1.30;1.17;;;;;;;20.83;54.08;100134.55;125082;1102;104162;-77
2021/06/14 14:36:35;;;;;;;4.93;1.50;;;;;;;20.75;53.85;100142.64;125112;1102;105061;-75
2021/06/14 14:39:14;;;;;;;1.33;1.23;;;;;;;20.72;54.81;100145.34;125104;1102;104174;-75
2021/06/14 14:41:46;;;;;;;2.20;1.33;;;;;;;20.64;54.48;100132.10;125075;1102;105124;-75
2021/06/14 14:44:21;;;;;;;1.85;1.50;;;;;;;20.56;54.88;100133.08;125084;1100;104169;-77
2021/06/14 14:46:52;;;;;;;3.30;1.47;;;;;;;20.50;54.36;100139.34;125036;1102;104181;-77
2021/06/14 14:49:27;;;;;;;4.07;1.40;;;;;;;20.52;55.36;100136.66;125067;1102;104242;-78
2021/06/14 14:52:02;;;;;;;1.70;1.60;;;;;;;20.54;55.22;100132.22;125038;1102;110268;-77
2021/06/14 14:54:34;;;;;;;1.20;1.10;;;;;;;20.51;55.10;100146.45;125042;1102;104178;-77
2021/06/14 14:57:05;;;;;;;5.03;1.33;;;;;;;20.44;55.58;100139.41;125128;1102;104200;-77
2021/06/14 14:59:36;;;;;;;7.37;2.10;;;;;;;20.31;55.58;100149.31;125689;1102;104181;-75
2021/06/14 15:02:07;;;;;;;4.73;1.80;;;;;;;20.22;55.17;100147.61;125062;1102;104197;-76
2021/06/14 15:04:38;;;;;;;4.30;1.63;;;;;;;20.17;55.41;100157.44;125147;1102;104137;-76
2021/06/14 15:07:10;;;;;;;6.47;1.73;;;;;;;20.11;55.68;100158.37;125131;1102;104178;-76
2021/06/14 15:09:40;;;;;;;2.67;1.63;;;;;;;20.01;55.81;100162.02;125061;1102;104263;-76
2021/06/14 15:12:12;;;;;;;8.17;1.40;;;;;;;19.99;55.60;100169.16;125049;1102;104169;-77
2021/06/14 15:14:42;;;;;;;1.43;1.33;;;;;;;19.94;55.78;100165.63;125151;1102;104222;-75
2021/06/14 15:17:13;;;;;;;2.53;1.10;;;;;;;19.82;56.10;100168.38;125115;1102;104190;-77
2021/06/14 15:19:44;;;;;;;3.70;1.00;;;;;;;19.75;56.63;100165.73;125146;1102;104171;-78
2021/06/14 15:22:18;;;;;;;2.20;1.10;;;;;;;19.75;56.92;100168.39;125173;1102;104246;-77
2021/06/14 15:24:49;;;;;;;1.10;0.90;;;;;;;19.82;57.29;100163.05;125038;1102;104194;-76
2021/06/14 15:27:21;;;;;;;2.07;1.47;;;;;;;19.84;56.27;100161.28;125114;1102;104210;-77
2021/06/14 15:29:51;;;;;;;1.43;1.20;;;;;;;19.84;56.61;100164.82;125115;1102;104165;-76
2021/06/14 15:32:22;;;;;;;1.30;1.03;;;;;;;19.83;56.72;100170.16;124968;1102;104169;-77
2021/06/14 15:34:54;;;;;;;2.00;1.30;;;;;;;19.79;56.03;100163.08;125143;1102;104140;-78
2021/06/14 15:37:27;;;;;;;1.40;1.00;;;;;;;19.78;56.41;100166.66;125092;1102;104273;-78
2021/06/14 15:39:58;;;;;;;1.95;1.30;;;;;;;19.78;57.47;100167.53;125150;1102;104137;-79
2021/06/14 15:42:29;;;;;;;2.97;1.13;;;;;;;19.80;56.58;100170.18;125151;1102;104146;-78
2021/06/14 15:44:59;;;;;;;2.40;1.17;;;;;;;19.77;57.04;100167.54;125203;1102;104185;-76
2021/06/14 15:47:30;;;;;;;1.20;1.10;;;;;;;19.66;57.56;100160.47;125216;1102;104255;-76
2021/06/14 15:50:01;;;;;;;1.77;1.20;;;;;;;19.55;57.03;100163.20;125185;1102;104715;-78
2021/06/14 15:52:31;;;;;;;1.73;1.60;;;;;;;19.52;57.28;100170.33;125127;1101;104143;-77
2021/06/14 15:55:03;;;;;;;4.03;1.40;;;;;;;19.53;57.16;100174.77;125097;1102;104248;-76
2021/06/14 15:57:34;;;;;;;2.10;1.50;;;;;;;19.51;57.49;100174.78;125199;1102;104168;-78
2021/06/14 16:00:06;;;;;;;4.73;2.50;;;;;;;19.48;57.29;100184.56;125241;1102;104162;-78
2021/06/14 16:02:44;;;;;;;2.60;1.83;;;;;;;19.51;57.39;100181.86;125050;1102;104173;-79
2021/06/14 16:05:17;;;;;;;6.23;2.47;;;;;;;19.55;57.87;100173.84;125222;1102;104245;-76
2021/06/14 16:07:49;;;;;;;1.67;1.50;;;;;;;19.56;57.81;100180.08;125143;1101;104168;-77
2021/06/14 16:10:21;;;;;;;2.83;1.30;;;;;;;19.53;57.76;100185.41;125229;1102;104204;-77
2021/06/14 16:12:52;;;;;;;2.90;1.43;;;;;;;19.48;58.03;100192.55;125161;1102;104305;-78
2021/06/14 16:15:23;;;;;;;1.77;1.23;;;;;;;19.45;58.45;100181.92;125156;1102;104214;-78
2021/06/14 16:17:54;;;;;;;1.77;1.23;;;;;;;19.44;58.65;100190.78;125146;1102;104155;-77
2021/06/14 16:20:26;;;;;;;1.37;1.00;;;;;;;19.45;58.25;100179.27;125054;1102;104172;-76
2021/06/14 16:22:56;;;;;;;3.90;1.33;;;;;;;19.44;57.90;100190.78;125126;1102;104222;-76
2021/06/14 16:25:27;;;;;;;6.10;1.50;;;;;;;19.40;58.85;100182.82;125117;1102;104222;-76
2021/06/14 16:28:07;;;;;;;4.17;1.37;;;;;;;19.37;58.14;100185.50;125102;1102;104326;-76
2021/06/14 16:30:39;;;;;;;1.63;0.97;;;;;;;19.41;59.28;100202.32;125178;1102;104201;-76
2021/06/14 16:33:10;;;;;;;3.70;1.20;;;;;;;19.37;59.19;100188.16;125111;1102;104239;-78
2021/06/14 16:35:40;;;;;;;2.97;0.90;;;;;;;19.35;58.54;100200.59;125256;1102;104181;-78
2021/06/14 16:38:11;;;;;;;2.07;1.20;;;;;;;19.36;59.49;100189.04;125227;1102;104156;-78
2021/06/14 16:40:42;;;;;;;2.77;1.17;;;;;;;19.38;58.75;100195.26;125182;1102;104321;-78
2021/06/14 16:43:12;;;;;;;2.60;1.13;;;;;;;19.36;59.12;100197.02;125131;1102;104147;-77
2021/06/14 16:45:43;;;;;;;1.83;1.10;;;;;;;19.29;59.33;100195.30;125239;1102;104624;-78
2021/06/14 16:48:15;;;;;;;2.10;0.97;;;;;;;19.26;59.34;100194.41;125231;1099;104293;-77
2021/06/14 16:50:46;;;;;;;1.30;0.93;;;;;;;19.21;59.07;100199.75;125163;1102;104227;-77